Terminal Aerodrome Forecast
Issued by NWS Melbourne, FL

Home | Current Version | Previous Version | Text Only | Print | Product List | Glossary On
Versions: 1 2 3 4 5 6 7 8 9 10 11 12 13 14 15 16 17 18 19 20
000
FTUS42 KMLB 310301 AAC
TAFDAB
TAF AMD
KDAB 310301Z 3103/3124 21008KT 6SM BR VCTS SCT045CB SCT090 BKN110
      TEMPO 3103/3105 3SM TSRA BKN040CB
     FM310600 21004KT P6SM SCT030 SCT250
     FM311400 27005KT P6SM SCT035
     FM312200 24005KT P6SM VCTS SCT035CB BKN250=

USA.gov is the U.S. government's official web portal to all federal, state and local government web resources and services.